Time;durP1;ratioP1;P1;durP2;ratioP2;P2;SDS_P1;SDS_P2;PMS_P1;PMS_P2;Temp;Humidity;BMP_temperature;BMP_pressure;BME280_temperature;BME280_humidity;BME280_pressure;Samples;Min_cycle;Max_cycle;Signal;HPM_P1;HPM_P2
2024/01/19 00:01:02;;;;;;;6.93;3.40;;;-1.00;99.90;;;;;;5005125;28;20031;-83
2024/01/19 00:03:29;;;;;;;10.10;4.70;;;-1.00;99.90;;;;;;4955660;28;20035;-79
2024/01/19 00:05:55;;;;;;;10.97;4.90;;;-1.10;99.90;;;;;;4986556;28;20504;-85
2024/01/19 00:08:22;;;;;;;9.33;4.10;;;-1.10;99.90;;;;;;4972003;28;20540;-78
2024/01/19 00:10:48;;;;;;;8.50;4.27;;;-1.10;99.90;;;;;;5003708;28;20047;-84
2024/01/19 00:13:14;;;;;;;8.67;3.87;;;-1.10;99.90;;;;;;5004235;28;20042;-87
2024/01/19 00:15:40;;;;;;;10.67;4.17;;;-1.10;99.90;;;;;;4986026;28;20034;-85
2024/01/19 00:18:07;;;;;;;8.83;4.30;;;-1.10;99.90;;;;;;4974536;28;20026;-80
2024/01/19 00:20:33;;;;;;;12.37;4.77;;;-1.10;99.90;;;;;;5005197;28;20038;-82
2024/01/19 00:22:59;;;;;;;7.00;3.97;;;-1.10;99.90;;;;;;4990830;28;20588;-82
2024/01/19 00:25:26;;;;;;;7.40;3.87;;;-1.10;99.90;;;;;;5004126;28;20129;-87
2024/01/19 00:27:52;;;;;;;8.67;4.33;;;-1.00;99.90;;;;;;5003563;28;20408;-83
2024/01/19 00:30:18;;;;;;;14.27;5.03;;;-1.00;99.90;;;;;;4988101;28;20490;-80
2024/01/19 00:32:44;;;;;;;11.30;4.77;;;-0.90;99.90;;;;;;4972218;28;20050;-80
2024/01/19 00:35:11;;;;;;;9.27;3.33;;;-0.90;99.90;;;;;;4955340;28;20045;-80
2024/01/19 00:37:37;;;;;;;7.03;3.53;;;-0.90;99.90;;;;;;4957517;28;20548;-82
2024/01/19 00:40:11;;;;;;;7.37;3.47;;;-0.90;99.90;;;;;;4971035;28;20042;-83
2024/01/19 00:42:41;;;;;;;8.30;4.40;;;-0.90;99.90;;;;;;4973456;28;20560;-79
2024/01/19 00:45:09;;;;;;;9.20;4.23;;;-1.00;99.90;;;;;;4972716;28;20045;-82
2024/01/19 00:47:36;;;;;;;7.63;3.60;;;-1.00;99.90;;;;;;4973146;28;20465;-86
2024/01/19 00:50:04;;;;;;;12.77;4.80;;;-1.00;99.90;;;;;;4972776;28;20065;-81
2024/01/19 00:52:30;;;;;;;16.20;4.83;;;-1.00;99.90;;;;;;4971928;28;20034;-83
2024/01/19 00:54:57;;;;;;;8.20;4.53;;;-1.00;99.90;;;;;;4957140;28;20039;-86
2024/01/19 00:57:23;;;;;;;7.40;4.07;;;-0.90;99.90;;;;;;4973557;28;20030;-82
2024/01/19 00:59:49;;;;;;;12.77;3.83;;;-0.80;99.90;;;;;;4958469;28;20026;-81
2024/01/19 01:02:16;;;;;;;9.50;4.93;;;-0.70;99.90;;;;;;4958141;28;20046;-83
2024/01/19 01:04:42;;;;;;;9.97;3.90;;;-0.60;99.90;;;;;;5007061;28;20037;-81
2024/01/19 01:07:08;;;;;;;7.20;3.13;;;-0.40;99.90;;;;;;4989627;28;20042;-84
2024/01/19 01:09:35;;;;;;;6.77;3.10;;;-0.30;99.90;;;;;;4959955;28;20519;-83
2024/01/19 01:12:02;;;;;;;6.90;2.63;;;-0.20;99.90;;;;;;4974635;28;20034;-87
2024/01/19 01:14:28;;;;;;;9.17;2.57;;;-0.20;99.90;;;;;;4969935;28;20389;-86
2024/01/19 01:16:55;;;;;;;6.17;2.30;;;-0.10;99.90;;;;;;5008289;28;20492;-76
2024/01/19 01:19:21;;;;;;;6.10;2.20;;;-0.10;99.90;;;;;;5005147;28;20472;-83
2024/01/19 01:21:47;;;;;;;6.67;2.47;;;-0.10;99.90;;;;;;4989503;28;20034;-87
2024/01/19 01:24:14;;;;;;;6.50;3.10;;;0.00;99.90;;;;;;4972543;28;20026;-86
2024/01/19 01:26:40;;;;;;;8.77;3.03;;;0.00;99.90;;;;;;4988734;28;20038;-79
2024/01/19 01:29:06;;;;;;;8.73;3.97;;;0.00;99.90;;;;;;5003359;28;20042;-84
2024/01/19 01:31:33;;;;;;;6.03;2.40;;;0.00;99.90;;;;;;4955421;28;20035;-84
2024/01/19 01:33:59;;;;;;;8.47;2.13;;;0.00;99.90;;;;;;4972754;28;20045;-79
2024/01/19 01:36:25;;;;;;;4.40;2.40;;;0.00;99.90;;;;;;4972776;28;20045;-88
2024/01/19 01:38:52;;;;;;;4.53;2.40;;;0.00;99.90;;;;;;4954986;28;20385;-79
2024/01/19 01:41:18;;;;;;;4.57;2.03;;;0.00;99.90;;;;;;4953731;28;20077;-81
2024/01/19 01:43:44;;;;;;;2.80;1.40;;;0.00;99.90;;;;;;4969472;28;20041;-83
2024/01/19 01:46:11;;;;;;;6.13;2.27;;;0.00;99.90;;;;;;4987070;28;20110;-78
2024/01/19 01:48:37;;;;;;;5.07;1.70;;;0.00;99.90;;;;;;4988513;28;20082;-81
2024/01/19 01:51:04;;;;;;;5.10;1.80;;;0.00;99.90;;;;;;5006178;28;20053;-77
2024/01/19 01:53:32;;;;;;;4.37;1.77;;;-0.10;99.90;;;;;;4973080;28;20030;-81
2024/01/19 01:55:59;;;;;;;5.50;1.50;;;-0.10;99.90;;;;;;4971985;28;20045;-81
2024/01/19 01:58:25;;;;;;;3.80;1.37;;;-0.10;99.90;;;;;;4942329;28;20461;-82
2024/01/19 02:00:52;;;;;;;2.77;1.43;;;-0.20;99.90;;;;;;5004498;28;20035;-83
2024/01/19 02:03:19;;;;;;;4.80;2.07;;;-0.20;99.90;;;;;;5007623;28;20301;-87
2024/01/19 02:05:45;;;;;;;3.73;1.20;;;-0.20;99.90;;;;;;4958429;28;20186;-81
2024/01/19 02:08:12;;;;;;;3.80;1.13;;;-0.30;99.90;;;;;;4989749;28;20577;-76
2024/01/19 02:10:39;;;;;;;4.50;1.10;;;-0.30;99.90;;;;;;5006414;28;20575;-83
2024/01/19 02:13:05;;;;;;;3.07;1.00;;;-0.40;99.90;;;;;;4975599;28;20034;-79
2024/01/19 02:15:34;;;;;;;2.77;0.83;;;-0.40;99.90;;;;;;4975160;28;20065;-83
2024/01/19 02:18:00;;;;;;;2.37;0.77;;;-0.50;99.90;;;;;;4974128;28;20397;-81
2024/01/19 02:20:27;;;;;;;4.47;0.97;;;-0.60;99.90;;;;;;4944829;28;20489;-85
2024/01/19 02:22:54;;;;;;;1.40;0.70;;;-0.70;99.90;;;;;;4974429;28;20033;-82
2024/01/19 02:25:21;;;;;;;3.37;0.80;;;-0.70;99.90;;;;;;4972844;28;20644;-79
2024/01/19 02:27:47;;;;;;;2.70;1.17;;;-0.80;99.90;;;;;;5007032;28;20389;-84
2024/01/19 02:30:14;;;;;;;3.37;1.00;;;-0.80;99.90;;;;;;4990768;28;21253;-77
2024/01/19 02:32:40;;;;;;;6.87;1.50;;;-0.90;99.90;;;;;;4974990;28;20538;-74
2024/01/19 02:35:07;;;;;;;2.63;1.00;;;-0.90;99.90;;;;;;5005156;28;20030;-81
2024/01/19 02:37:34;;;;;;;2.27;1.07;;;-0.90;99.90;;;;;;4958113;28;20042;-85
2024/01/19 02:40:00;;;;;;;3.40;1.13;;;-0.90;99.90;;;;;;4987460;28;20037;-82
2024/01/19 02:42:29;;;;;;;2.27;1.40;;;-1.00;99.90;;;;;;4974001;28;20178;-83
2024/01/19 02:44:55;;;;;;;2.10;1.50;;;-1.00;99.90;;;;;;4972711;28;20163;-82
2024/01/19 02:47:22;;;;;;;3.53;1.10;;;-1.00;99.90;;;;;;4986543;28;20034;-82
2024/01/19 02:49:48;;;;;;;1.47;0.93;;;-1.00;99.90;;;;;;5006666;28;20042;-80
2024/01/19 02:52:15;;;;;;;2.23;1.00;;;-1.00;99.90;;;;;;4972900;28;20050;-82
2024/01/19 02:54:41;;;;;;;2.47;0.83;;;-1.10;99.90;;;;;;4986730;28;20053;-79
2024/01/19 02:57:07;;;;;;;2.70;1.40;;;-1.10;99.90;;;;;;4973389;28;20389;-84
2024/01/19 02:59:34;;;;;;;3.23;0.90;;;-1.10;99.90;;;;;;4988703;28;20043;-84
2024/01/19 03:02:00;;;;;;;3.67;1.17;;;-1.00;99.90;;;;;;4971256;28;20038;-83
2024/01/19 03:04:27;;;;;;;6.07;1.67;;;-1.10;99.90;;;;;;4973911;28;20034;-77
2024/01/19 03:06:55;;;;;;;2.83;1.60;;;-1.00;99.90;;;;;;4961555;28;20038;-79
2024/01/19 03:09:21;;;;;;;3.50;1.43;;;-1.00;99.90;;;;;;4975545;28;20434;-79
2024/01/19 03:11:47;;;;;;;3.07;1.70;;;-1.00;99.90;;;;;;4974333;28;20045;-79
2024/01/19 03:14:14;;;;;;;3.20;1.97;;;-1.00;99.90;;;;;;4989461;28;20038;-79
2024/01/19 03:16:44;;;;;;;3.50;1.87;;;-1.10;99.90;;;;;;4955253;28;20955;-76
2024/01/19 03:19:10;;;;;;;4.27;1.70;;;-1.10;99.90;;;;;;4969025;28;20053;-81
2024/01/19 03:21:37;;;;;;;2.73;2.00;;;-1.10;99.90;;;;;;4939688;28;20037;-84
2024/01/19 03:24:03;;;;;;;5.63;2.67;;;-1.10;99.90;;;;;;4973091;28;20026;-80
2024/01/19 03:26:30;;;;;;;2.70;2.10;;;-1.10;99.90;;;;;;4974190;28;20500;-74
2024/01/19 03:28:56;;;;;;;2.87;2.17;;;-1.10;99.90;;;;;;4966697;28;20049;-83
2024/01/19 03:31:22;;;;;;;3.10;2.37;;;-1.10;99.90;;;;;;4972489;28;20402;-81
2024/01/19 03:33:49;;;;;;;4.23;2.90;;;-1.20;99.90;;;;;;4957253;28;20045;-84
2024/01/19 03:36:15;;;;;;;3.97;3.00;;;-1.20;99.90;;;;;;4972944;28;20053;-79
2024/01/19 03:38:41;;;;;;;6.60;3.17;;;-1.20;99.90;;;;;;5003525;28;20049;-73
2024/01/19 03:41:08;;;;;;;6.07;3.70;;;-1.20;99.90;;;;;;4955719;28;20512;-82
2024/01/19 03:43:34;;;;;;;10.10;4.60;;;-1.20;99.90;;;;;;5003020;28;20042;-80
2024/01/19 03:46:00;;;;;;;4.53;3.67;;;-1.20;99.90;;;;;;4971457;28;20026;-85
2024/01/19 03:48:27;;;;;;;5.70;4.30;;;-1.20;99.90;;;;;;4988418;28;20041;-83
2024/01/19 03:50:53;;;;;;;6.97;3.60;;;-1.20;99.90;;;;;;4972814;28;20085;-73
2024/01/19 03:53:20;;;;;;;6.37;4.60;;;-1.30;99.90;;;;;;4941366;28;20113;-79
2024/01/19 03:55:48;;;;;;;8.60;4.87;;;-1.20;99.90;;;;;;4956830;28;20491;-80
2024/01/19 03:58:14;;;;;;;10.53;6.07;;;-1.30;99.90;;;;;;4971588;28;20049;-84
2024/01/19 04:00:41;;;;;;;8.40;5.57;;;-1.20;99.90;;;;;;4954089;28;20401;-80
2024/01/19 04:03:07;;;;;;;8.40;6.43;;;-1.20;99.90;;;;;;5003850;28;20026;-82
2024/01/19 04:05:33;;;;;;;11.20;6.07;;;-1.10;99.90;;;;;;4970765;28;20405;-81
2024/01/19 04:08:00;;;;;;;8.73;6.67;;;-1.10;99.90;;;;;;4971020;28;20042;-81
2024/01/19 04:10:27;;;;;;;8.63;5.93;;;-1.00;99.90;;;;;;4969724;28;20038;-84
2024/01/19 04:12:53;;;;;;;9.60;6.27;;;-1.10;99.90;;;;;;4987249;28;20814;-83
2024/01/19 04:15:20;;;;;;;8.00;5.90;;;-1.10;99.90;;;;;;4973102;28;20389;-81
2024/01/19 04:17:46;;;;;;;10.23;5.80;;;-1.10;99.90;;;;;;4972907;28;20034;-84
2024/01/19 04:20:12;;;;;;;10.47;7.13;;;-1.10;99.90;;;;;;4955545;28;20034;-78
2024/01/19 04:22:39;;;;;;;7.93;6.63;;;-1.10;99.90;;;;;;4953869;28;20049;-81
2024/01/19 04:25:05;;;;;;;10.70;6.67;;;-1.00;99.90;;;;;;4969459;28;20042;-80
2024/01/19 04:27:32;;;;;;;8.13;6.53;;;-1.00;99.90;;;;;;4971086;28;20030;-82
2024/01/19 04:29:58;;;;;;;10.97;5.97;;;-0.90;99.90;;;;;;4970027;28;20576;-85
2024/01/19 04:32:24;;;;;;;11.37;6.67;;;-1.00;99.90;;;;;;4999331;28;20054;-80
2024/01/19 04:34:50;;;;;;;10.30;7.50;;;-1.00;99.90;;;;;;4970479;28;20496;-81
2024/01/19 04:37:17;;;;;;;13.23;7.43;;;-1.00;99.90;;;;;;4955626;28;20455;-81
2024/01/19 04:39:44;;;;;;;9.80;6.17;;;-1.00;99.90;;;;;;4955459;28;20038;-81
2024/01/19 04:42:12;;;;;;;5.93;5.33;;;-1.00;99.90;;;;;;4967212;28;20039;-82
2024/01/19 04:44:38;;;;;;;9.93;5.37;;;-1.10;99.90;;;;;;4952693;28;20057;-81
2024/01/19 04:47:05;;;;;;;8.33;4.87;;;-1.10;99.90;;;;;;4973859;28;20045;-82
2024/01/19 04:49:31;;;;;;;7.60;5.23;;;-1.20;99.90;;;;;;5000937;28;20038;-84
2024/01/19 04:51:58;;;;;;;6.03;4.50;;;-1.20;99.90;;;;;;4968999;28;20961;-73
2024/01/19 04:54:24;;;;;;;5.73;4.67;;;-1.20;99.90;;;;;;4984100;28;20042;-79
2024/01/19 04:56:51;;;;;;;4.93;3.93;;;-1.20;99.90;;;;;;4985640;28;20045;-82
2024/01/19 04:59:17;;;;;;;7.97;3.97;;;-1.10;99.90;;;;;;4970818;28;20038;-78
2024/01/19 05:01:44;;;;;;;6.73;5.27;;;-1.10;99.90;;;;;;5003149;28;20030;-78
2024/01/19 05:04:10;;;;;;;6.90;5.00;;;-1.00;99.90;;;;;;4973037;28;20045;-80
2024/01/19 05:06:37;;;;;;;5.67;4.37;;;-1.00;99.90;;;;;;4971119;28;20042;-85
2024/01/19 05:09:05;;;;;;;7.33;5.37;;;-0.90;99.90;;;;;;5003152;28;20042;-83
2024/01/19 05:11:31;;;;;;;7.60;4.70;;;-0.90;99.90;;;;;;4970605;28;20042;-76
2024/01/19 05:13:58;;;;;;;8.97;5.03;;;-1.00;99.90;;;;;;4974087;28;20655;-83
2024/01/19 05:16:24;;;;;;;5.07;4.37;;;-1.00;99.90;;;;;;4969286;28;20421;-83
2024/01/19 05:18:50;;;;;;;8.80;5.00;;;-1.00;99.90;;;;;;5003562;28;20034;-78
2024/01/19 05:21:17;;;;;;;8.57;5.33;;;-1.00;99.90;;;;;;4970162;28;20374;-79
2024/01/19 05:23:43;;;;;;;7.17;5.30;;;-1.00;99.90;;;;;;4986516;28;20037;-79
2024/01/19 05:26:10;;;;;;;7.80;4.63;;;-0.90;99.90;;;;;;4969226;28;20045;-82
2024/01/19 05:28:36;;;;;;;8.30;5.93;;;-0.80;99.90;;;;;;4985315;28;20514;-80
2024/01/19 05:31:03;;;;;;;11.57;8.07;;;-0.80;99.90;;;;;;4968481;28;20501;-80
2024/01/19 05:33:31;;;;;;;11.93;8.17;;;-0.70;99.90;;;;;;4972389;28;20042;-81
2024/01/19 05:35:57;;;;;;;12.57;8.60;;;-0.70;99.90;;;;;;4970230;28;20034;-80
2024/01/19 05:38:23;;;;;;;13.33;7.30;;;-0.60;99.90;;;;;;4938651;28;20275;-79
2024/01/19 05:40:50;;;;;;;12.07;6.50;;;-0.60;99.90;;;;;;4971035;28;20030;-79
2024/01/19 05:43:16;;;;;;;8.57;5.87;;;-0.70;99.90;;;;;;4971681;28;20042;-79
2024/01/19 05:45:43;;;;;;;7.63;4.83;;;-0.80;99.90;;;;;;4954398;28;20030;-80
2024/01/19 05:48:09;;;;;;;7.17;5.00;;;-0.80;99.90;;;;;;4969964;28;20130;-83
2024/01/19 05:50:35;;;;;;;6.87;4.83;;;-0.90;99.90;;;;;;4970627;28;20061;-79
2024/01/19 05:53:01;;;;;;;9.70;5.20;;;-0.90;99.90;;;;;;5002340;28;20038;-85
2024/01/19 05:55:28;;;;;;;7.80;5.13;;;-1.00;99.90;;;;;;4972966;28;20564;-83
2024/01/19 05:57:55;;;;;;;8.97;5.00;;;-1.00;99.90;;;;;;4970260;28;20639;-78
2024/01/19 06:00:21;;;;;;;8.80;4.60;;;-1.00;99.90;;;;;;4969827;28;21206;-77
2024/01/19 06:02:48;;;;;;;8.53;4.93;;;-1.00;99.90;;;;;;4986331;28;20694;-76
2024/01/19 06:05:14;;;;;;;11.90;6.23;;;-1.00;99.90;;;;;;4956725;28;20477;-80
2024/01/19 06:07:40;;;;;;;7.33;5.03;;;-1.00;99.90;;;;;;4966598;28;20405;-80
2024/01/19 06:10:07;;;;;;;6.03;4.10;;;-0.90;99.90;;;;;;4969827;28;20313;-77
2024/01/19 06:12:33;;;;;;;5.60;3.57;;;-0.90;99.90;;;;;;4955814;28;20679;-83
2024/01/19 06:15:00;;;;;;;6.70;3.77;;;-0.90;99.90;;;;;;4967014;28;20065;-82
2024/01/19 06:17:26;;;;;;;4.33;3.03;;;-0.90;99.90;;;;;;4975537;28;20046;-73
2024/01/19 06:19:53;;;;;;;7.90;3.90;;;-0.90;99.90;;;;;;4957013;28;20030;-81
2024/01/19 06:22:19;;;;;;;7.80;2.97;;;-1.00;99.90;;;;;;4969569;28;20620;-79
2024/01/19 06:24:50;;;;;;;7.17;3.80;;;-1.00;99.90;;;;;;4986003;28;20054;-81
2024/01/19 06:27:20;;;;;;;6.73;3.83;;;-1.00;99.90;;;;;;4966532;28;20034;-78
2024/01/19 06:29:47;;;;;;;4.67;3.30;;;-1.10;99.90;;;;;;4967970;28;20046;-82
2024/01/19 06:32:13;;;;;;;7.13;3.63;;;-1.10;99.90;;;;;;4955541;28;20038;-80
2024/01/19 06:34:42;;;;;;;7.83;3.80;;;-1.10;99.90;;;;;;5004651;28;20050;-79
2024/01/19 06:37:08;;;;;;;7.13;3.40;;;-1.10;99.90;;;;;;4989406;28;20026;-80
2024/01/19 06:39:35;;;;;;;7.40;3.23;;;-1.20;99.90;;;;;;4989935;28;20137;-82
2024/01/19 06:42:02;;;;;;;6.67;3.23;;;-1.20;99.90;;;;;;4973856;28;20045;-82
2024/01/19 06:44:29;;;;;;;5.37;3.83;;;-1.20;99.90;;;;;;5005226;28;20046;-81
2024/01/19 06:46:55;;;;;;;6.40;3.10;;;-1.30;99.90;;;;;;4973245;28;20466;-77
2024/01/19 06:49:22;;;;;;;3.87;2.93;;;-1.30;99.90;;;;;;4973684;28;20061;-80
2024/01/19 06:51:48;;;;;;;5.20;3.03;;;-1.30;99.90;;;;;;4989082;28;20035;-74
2024/01/19 06:54:14;;;;;;;4.73;2.90;;;-1.40;99.90;;;;;;4974640;28;20599;-78
2024/01/19 06:56:42;;;;;;;4.90;2.80;;;-1.40;99.90;;;;;;4956732;28;20042;-79
2024/01/19 06:59:08;;;;;;;4.07;2.47;;;-1.50;99.90;;;;;;4978863;28;20529;-80
2024/01/19 07:01:38;;;;;;;5.10;2.57;;;-1.50;99.90;;;;;;4977595;28;20046;-73
2024/01/19 07:04:05;;;;;;;6.27;4.00;;;-1.50;99.90;;;;;;4972279;28;20041;-84
2024/01/19 07:06:33;;;;;;;8.90;5.93;;;-1.50;99.90;;;;;;4974822;28;20049;-73
2024/01/19 07:09:00;;;;;;;10.47;6.77;;;-1.40;99.90;;;;;;5004334;28;20030;-85
2024/01/19 07:11:27;;;;;;;12.27;8.00;;;-1.30;99.90;;;;;;5005131;28;20039;-79
2024/01/19 07:13:54;;;;;;;12.97;8.07;;;-1.20;99.90;;;;;;4972715;28;20377;-82
2024/01/19 07:16:21;;;;;;;10.93;7.23;;;-1.10;99.90;;;;;;5006014;28;20045;-81
2024/01/19 07:18:47;;;;;;;12.30;8.60;;;-1.00;99.90;;;;;;5005077;28;20046;-80
2024/01/19 07:21:14;;;;;;;13.20;8.90;;;-0.90;99.90;;;;;;4973356;28;20418;-84
2024/01/19 07:23:40;;;;;;;10.30;8.10;;;-0.80;99.90;;;;;;5005051;28;20248;-80
2024/01/19 07:26:07;;;;;;;12.93;8.03;;;-0.80;99.90;;;;;;4974134;28;20069;-83
2024/01/19 07:28:33;;;;;;;12.43;8.87;;;-0.70;99.90;;;;;;5004784;28;20038;-83
2024/01/19 07:30:59;;;;;;;14.70;10.40;;;-0.70;99.90;;;;;;4955530;28;20508;-78
2024/01/19 07:33:26;;;;;;;12.07;9.50;;;-0.60;99.90;;;;;;4973640;28;20489;-79
2024/01/19 07:35:53;;;;;;;14.80;9.70;;;-0.60;99.90;;;;;;4974173;28;20875;-82
2024/01/19 07:38:20;;;;;;;23.63;13.00;;;-0.50;99.90;;;;;;4989923;28;20045;-81
2024/01/19 07:40:46;;;;;;;20.77;12.63;;;-0.50;99.90;;;;;;4973413;28;20030;-76
2024/01/19 07:43:12;;;;;;;20.03;12.97;;;-0.40;99.90;;;;;;4954171;28;20069;-74
2024/01/19 07:45:39;;;;;;;18.80;13.20;;;-0.40;99.90;;;;;;4956043;28;20026;-82
2024/01/19 07:48:06;;;;;;;20.80;14.27;;;-0.30;99.90;;;;;;5002072;28;20041;-80
2024/01/19 07:50:32;;;;;;;17.67;12.30;;;-0.30;99.90;;;;;;4984889;28;20050;-80
2024/01/19 07:52:59;;;;;;;24.50;15.77;;;-0.20;99.90;;;;;;4972867;28;20041;-80
2024/01/19 07:55:25;;;;;;;18.97;13.97;;;-0.20;99.90;;;;;;4986605;28;20034;-75
2024/01/19 07:57:51;;;;;;;19.37;14.37;;;-0.20;99.90;;;;;;4955710;28;20046;-77
2024/01/19 08:00:18;;;;;;;16.23;12.77;;;-0.20;99.90;;;;;;4986020;28;20383;-78
2024/01/19 08:02:46;;;;;;;20.27;13.87;;;-0.20;99.90;;;;;;4984815;28;20046;-75
2024/01/19 08:05:12;;;;;;;17.73;13.00;;;-0.20;99.90;;;;;;4985278;28;20030;-81
2024/01/19 08:07:40;;;;;;;23.23;16.17;;;-0.10;99.90;;;;;;4968394;28;20045;-77
2024/01/19 08:10:07;;;;;;;28.20;19.67;;;-0.10;99.90;;;;;;4999523;28;20038;-80
2024/01/19 08:12:33;;;;;;;21.33;16.30;;;-0.10;99.90;;;;;;4984451;28;20030;-77
2024/01/19 08:14:59;;;;;;;25.10;17.10;;;-0.10;99.90;;;;;;4969694;28;20073;-77
2024/01/19 08:17:26;;;;;;;41.33;25.33;;;-0.10;99.90;;;;;;4957260;28;20441;-80
2024/01/19 08:19:52;;;;;;;24.13;18.37;;;-0.10;99.90;;;;;;4967813;28;20034;-80
2024/01/19 08:22:18;;;;;;;26.93;17.63;;;-0.10;99.90;;;;;;4970250;28;20489;-80
2024/01/19 08:24:45;;;;;;;33.67;20.77;;;-0.10;99.90;;;;;;4968278;28;20537;-77
2024/01/19 08:27:11;;;;;;;31.23;18.23;;;0.00;99.90;;;;;;4969039;28;20544;-82
2024/01/19 08:29:38;;;;;;;32.53;18.77;;;0.00;99.90;;;;;;4956431;28;20425;-77
2024/01/19 08:32:04;;;;;;;24.43;18.03;;;0.00;99.90;;;;;;4971696;28;20029;-78
2024/01/19 08:34:30;;;;;;;29.53;19.20;;;0.10;99.90;;;;;;4970231;28;20043;-77
2024/01/19 08:36:57;;;;;;;30.37;19.10;;;0.10;99.90;;;;;;4979993;28;20030;-79
2024/01/19 08:39:23;;;;;;;23.53;16.60;;;0.10;99.90;;;;;;5001180;28;20041;-78
2024/01/19 08:41:49;;;;;;;25.80;16.43;;;0.10;99.90;;;;;;4967482;28;20038;-76
2024/01/19 08:44:16;;;;;;;27.53;17.00;;;0.20;99.90;;;;;;4952598;28;20039;-78
2024/01/19 08:46:43;;;;;;;24.07;15.83;;;0.20;99.90;;;;;;4951907;28;20030;-73
2024/01/19 08:49:11;;;;;;;23.73;15.67;;;0.20;99.90;;;;;;4950770;28;20034;-74
2024/01/19 08:51:43;;;;;;;21.73;15.30;;;0.20;99.90;;;;;;4969842;28;20022;-74
2024/01/19 08:54:10;;;;;;;24.70;16.10;;;0.30;99.90;;;;;;4957690;28;20049;-74
2024/01/19 08:56:37;;;;;;;24.47;15.93;;;0.30;99.90;;;;;;4973150;28;20311;-79
2024/01/19 08:59:03;;;;;;;24.67;16.30;;;0.30;99.90;;;;;;4955803;28;20046;-81
2024/01/19 09:01:31;;;;;;;25.60;17.53;;;0.30;99.90;;;;;;4969642;28;20041;-79
2024/01/19 09:03:57;;;;;;;21.17;14.10;;;0.40;99.90;;;;;;4970759;28;20042;-80
2024/01/19 09:06:24;;;;;;;27.60;15.90;;;0.50;99.90;;;;;;4968450;28;20409;-78
2024/01/19 09:08:51;;;;;;;22.63;16.47;;;0.60;99.90;;;;;;4986458;28;20049;-77
2024/01/19 09:11:18;;;;;;;33.03;20.33;;;0.70;99.90;;;;;;4952492;28;20518;-83
2024/01/19 09:13:45;;;;;;;28.30;18.70;;;0.80;99.90;;;;;;4965688;28;20034;-80
2024/01/19 09:16:12;;;;;;;26.50;17.80;;;0.90;99.90;;;;;;4982016;28;20050;-79
2024/01/19 09:18:41;;;;;;;31.00;18.57;;;0.90;99.90;;;;;;5002026;28;20608;-83
2024/01/19 09:21:16;;;;;;;24.70;17.97;;;0.90;99.90;;;;;;5000937;28;20038;-81
2024/01/19 09:23:42;;;;;;;34.93;19.63;;;0.80;99.90;;;;;;4967337;28;20401;-79
2024/01/19 09:26:25;;;;;;;27.00;18.90;;;0.80;99.90;;;;;;4969535;28;21917;-77
2024/01/19 09:28:51;;;;;;;31.15;18.60;;;0.70;99.90;;;;;;4969434;28;20045;-80
2024/01/19 09:31:18;;;;;;;31.47;17.77;;;0.70;99.90;;;;;;4983375;28;20054;-76
2024/01/19 09:33:44;;;;;;;25.73;16.53;;;0.70;99.90;;;;;;4953953;28;20494;-82
2024/01/19 09:36:11;;;;;;;30.93;18.33;;;0.70;99.90;;;;;;4969097;28;20034;-75
2024/01/19 09:38:37;;;;;;;32.33;20.33;;;0.80;99.90;;;;;;4966873;28;20034;-79
2024/01/19 09:41:33;;;;;;;34.50;20.77;;;0.80;99.90;;;;;;4982428;28;20038;-80
2024/01/19 09:44:06;;;;;;;34.83;22.00;;;0.80;99.90;;;;;;4967685;28;20037;-81
2024/01/19 09:46:41;;;;;;;39.05;22.85;;;0.80;99.90;;;;;;4999127;28;20027;-82
2024/01/19 09:49:16;;;;;;;41.20;24.70;;;0.80;99.90;;;;;;4968151;28;20030;-81
2024/01/19 09:52:00;;;;;;;35.83;22.47;;;0.80;99.90;;;;;;4998319;28;20038;-79
2024/01/19 09:54:37;;;;;;;33.30;22.30;;;0.80;99.90;;;;;;4982842;28;20041;-76
2024/01/19 09:57:04;;;;;;;40.10;25.70;;;0.90;99.90;;;;;;4985684;28;20535;-77
2024/01/19 09:59:33;;;;;;;36.63;22.80;;;0.90;99.90;;;;;;4968915;28;20425;-85
2024/01/19 10:02:00;;;;;;;33.00;20.47;;;0.90;99.90;;;;;;4982469;28;20030;-85
2024/01/19 10:04:27;;;;;;;35.73;21.23;;;1.00;99.90;;;;;;4969098;28;20030;-85
2024/01/19 10:06:55;;;;;;;35.47;22.00;;;1.00;99.90;;;;;;4955722;28;20425;-78
2024/01/19 10:09:22;;;;;;;38.27;25.37;;;1.10;99.90;;;;;;4971778;28;20420;-76
2024/01/19 10:11:54;;;;;;;41.33;25.90;;;1.10;99.90;;;;;;4974554;28;20038;-81
2024/01/19 10:14:21;;;;;;;45.10;28.10;;;1.10;99.90;;;;;;4956500;28;20035;-83
2024/01/19 10:16:49;;;;;;;38.10;24.90;;;1.10;99.90;;;;;;4974990;28;20497;-82
2024/01/19 10:19:16;;;;;;;36.83;24.00;;;1.20;99.90;;;;;;4941784;28;20042;-85
2024/01/19 10:21:43;;;;;;;40.90;24.17;;;1.20;99.90;;;;;;5003787;28;20038;-78
2024/01/19 10:24:14;;;;;;;33.47;21.93;;;1.30;99.90;;;;;;4972904;28;20619;-76
2024/01/19 10:26:47;;;;;;;36.03;23.00;;;1.30;99.90;;;;;;4971745;28;20073;-80
2024/01/19 10:29:15;;;;;;;34.07;21.70;;;1.40;99.90;;;;;;4973038;28;20042;-82
2024/01/19 10:31:45;;;;;;;38.27;23.57;;;1.50;99.90;;;;;;4989895;28;20214;-82
2024/01/19 10:34:17;;;;;;;31.33;22.97;;;1.50;99.90;;;;;;4973160;28;20502;-81
2024/01/19 10:36:44;;;;;;;33.00;24.10;;;1.50;99.90;;;;;;4973630;28;20041;-81
2024/01/19 10:39:17;;;;;;;33.10;22.20;;;1.50;99.90;;;;;;5005302;28;20034;-78
2024/01/19 10:41:44;;;;;;;32.63;22.23;;;1.60;99.90;;;;;;4989252;28;20050;-77
2024/01/19 10:44:12;;;;;;;27.73;20.67;;;1.70;99.90;;;;;;4957519;28;20038;-79
2024/01/19 10:46:38;;;;;;;23.65;18.70;;;1.80;99.90;;;;;;4988121;28;20045;-79
2024/01/19 10:49:06;;;;;;;24.55;17.90;;;2.00;99.90;;;;;;5003973;28;20031;-80
2024/01/19 10:51:42;;;;;;;22.23;16.43;;;2.20;99.90;;;;;;4989235;28;20176;-78
2024/01/19 10:54:15;;;;;;;22.87;16.20;;;2.20;99.90;;;;;;4975357;28;20449;-80
2024/01/19 10:56:46;;;;;;;23.27;14.15;;;2.20;99.90;;;;;;4966900;28;20038;-76
2024/01/19 10:59:14;;;;;;;17.30;13.53;;;2.10;99.90;;;;;;4989661;28;20041;-79
2024/01/19 11:01:42;;;;;;;20.80;15.57;;;2.10;99.90;;;;;;4986130;28;20030;-78
2024/01/19 11:04:11;;;;;;;21.73;15.03;;;2.00;99.90;;;;;;4957716;28;20062;-80
2024/01/19 11:06:38;;;;;;;16.73;13.05;;;2.00;99.90;;;;;;4987854;28;20090;-82
2024/01/19 11:09:06;;;;;;;20.83;15.23;;;2.00;99.90;;;;;;4970937;28;20050;-80
2024/01/19 11:11:54;;;;;;;18.87;14.13;;;1.90;99.90;;;;;;4974090;28;20490;-82
2024/01/19 11:14:24;;;;;;;18.97;13.23;;;2.00;99.90;;;;;;4986541;28;20042;-80
2024/01/19 11:16:52;;;;;;;23.10;14.43;;;2.00;99.90;;;;;;4971411;28;20497;-79
2024/01/19 11:19:20;;;;;;;16.97;12.43;;;1.90;99.90;;;;;;4969577;28;20040;-80
2024/01/19 11:21:46;;;;;;;18.20;13.37;;;1.90;99.90;;;;;;4960405;28;20038;-78
2024/01/19 11:24:15;;;;;;;18.93;12.33;;;2.00;99.90;;;;;;4973501;28;20489;-78
2024/01/19 11:26:49;;;;;;;21.00;13.20;;;2.10;99.90;;;;;;5004714;28;20042;-80
2024/01/19 11:29:22;;;;;;;29.40;15.33;;;2.20;99.90;;;;;;4966608;28;20449;-81
2024/01/19 11:31:50;;;;;;;21.30;13.40;;;2.40;99.90;;;;;;4941049;28;20042;-80
2024/01/19 11:34:50;;;;;;;18.97;12.90;;;2.40;99.90;;;;;;4989250;28;20050;-80
2024/01/19 11:37:38;;;;;;;19.20;12.37;;;2.40;99.90;;;;;;4987272;28;20043;-80
2024/01/19 11:40:06;;;;;;;16.80;10.65;;;2.40;99.90;;;;;;4969290;28;20207;-79
2024/01/19 11:42:42;;;;;;;15.25;10.02;;;2.40;99.90;;;;;;4955390;28;20477;-79
2024/01/19 11:45:26;;;;;;;14.13;9.07;;;2.40;99.90;;;;;;5001384;28;20045;-81
2024/01/19 11:47:53;;;;;;;15.83;10.83;;;2.30;99.90;;;;;;4963328;28;20041;-79
2024/01/19 11:50:41;;;;;;;17.53;9.97;;;2.40;99.90;;;;;;4971994;28;20085;-76
2024/01/19 11:53:08;;;;;;;14.25;10.70;;;2.40;99.90;;;;;;4970329;28;20026;-78
2024/01/19 11:55:36;;;;;;;16.63;10.43;;;2.40;99.90;;;;;;4954986;28;20061;-80
2024/01/19 11:58:28;;;;;;;15.40;9.23;;;2.50;99.90;;;;;;4987364;28;21098;-78
2024/01/19 12:00:56;;;;;;;14.07;8.90;;;2.70;99.90;;;;;;4955918;28;20038;-80
2024/01/19 12:03:23;;;;;;;12.02;8.15;;;2.90;99.90;;;;;;5001921;28;20034;-77
2024/01/19 12:05:53;;;;;;;13.57;7.80;;;3.00;99.90;;;;;;4985911;28;20399;-79
2024/01/19 12:08:19;;;;;;;14.18;8.07;;;3.20;99.90;;;;;;5003551;28;20048;-75
2024/01/19 12:10:45;;;;;;;14.63;8.27;;;3.30;99.90;;;;;;4970484;28;21281;-76
2024/01/19 12:13:12;;;;;;;13.07;7.97;;;3.40;99.90;;;;;;4953780;28;20421;-77
2024/01/19 12:15:41;;;;;;;13.05;8.77;;;3.50;99.90;;;;;;4967128;28;20038;-75
2024/01/19 12:18:08;;;;;;;15.18;8.30;;;3.40;99.90;;;;;;4985503;28;20030;-80
2024/01/19 12:20:34;;;;;;;16.00;8.25;;;3.30;99.90;;;;;;4971006;28;20485;-79
2024/01/19 12:23:01;;;;;;;12.30;6.87;;;3.10;99.90;;;;;;4982739;28;20049;-76
2024/01/19 12:25:27;;;;;;;8.90;6.43;;;3.00;99.90;;;;;;4985193;28;20064;-79
2024/01/19 12:28:04;;;;;;;11.05;6.25;;;2.90;99.90;;;;;;4968735;28;20034;-80
2024/01/19 12:30:33;;;;;;;10.05;6.45;;;2.80;99.90;;;;;;4967470;28;20439;-80
2024/01/19 12:33:17;;;;;;;11.13;6.43;;;2.80;99.90;;;;;;4969147;28;20708;-79
2024/01/19 12:35:46;;;;;;;8.93;6.55;;;2.80;99.90;;;;;;4971285;28;20042;-79
2024/01/19 12:38:16;;;;;;;9.20;6.38;;;2.80;99.90;;;;;;4982219;28;20572;-76
2024/01/19 12:40:43;;;;;;;14.25;7.72;;;2.80;99.90;;;;;;4968855;28;20262;-77
2024/01/19 12:43:10;;;;;;;11.82;6.68;;;2.80;99.90;;;;;;4970760;28;20049;-78
2024/01/19 12:45:36;;;;;;;11.10;7.13;;;2.80;99.90;;;;;;4969146;28;20038;-80